sensor_id;sensor_type;location;lat;lon;timestamp;P1;durP1;ratioP1;P2;durP2;ratioP2
11386;SDS011;5748;53.102;8.456;2024-01-30T00:00:39;4.60;;;4.20;;
11386;SDS011;5748;53.102;8.456;2024-01-30T00:03:06;4.63;;;4.23;;
11386;SDS011;5748;53.102;8.456;2024-01-30T00:05:34;4.47;;;4.07;;
11386;SDS011;5748;53.102;8.456;2024-01-30T00:08:02;4.80;;;4.40;;
11386;SDS011;5748;53.102;8.456;2024-01-30T00:10:29;4.50;;;4.10;;
11386;SDS011;5748;53.102;8.456;2024-01-30T00:12:56;4.50;;;4.10;;
11386;SDS011;5748;53.102;8.456;2024-01-30T00:15:23;4.23;;;3.93;;
11386;SDS011;5748;53.102;8.456;2024-01-30T00:17:50;4.57;;;4.17;;
11386;SDS011;5748;53.102;8.456;2024-01-30T00:20:18;4.57;;;4.17;;
11386;SDS011;5748;53.102;8.456;2024-01-30T00:22:46;4.13;;;3.83;;
11386;SDS011;5748;53.102;8.456;2024-01-30T00:25:13;4.37;;;4.07;;
11386;SDS011;5748;53.102;8.456;2024-01-30T00:27:55;4.70;;;4.30;;
11386;SDS011;5748;53.102;8.456;2024-01-30T00:30:22;4.80;;;4.40;;
11386;SDS011;5748;53.102;8.456;2024-01-30T00:32:49;4.40;;;3.93;;
11386;SDS011;5748;53.102;8.456;2024-01-30T00:35:16;4.33;;;3.93;;
11386;SDS011;5748;53.102;8.456;2024-01-30T00:37:43;4.43;;;4.00;;
11386;SDS011;5748;53.102;8.456;2024-01-30T00:40:12;4.80;;;4.40;;
11386;SDS011;5748;53.102;8.456;2024-01-30T00:42:40;4.87;;;4.37;;
11386;SDS011;5748;53.102;8.456;2024-01-30T00:45:11;4.40;;;4.00;;
11386;SDS011;5748;53.102;8.456;2024-01-30T00:47:39;5.83;;;4.23;;
11386;SDS011;5748;53.102;8.456;2024-01-30T00:50:06;4.57;;;4.17;;
11386;SDS011;5748;53.102;8.456;2024-01-30T00:52:34;4.37;;;3.97;;
11386;SDS011;5748;53.102;8.456;2024-01-30T00:55:02;4.30;;;3.90;;
11386;SDS011;5748;53.102;8.456;2024-01-30T00:57:31;4.10;;;3.70;;
11386;SDS011;5748;53.102;8.456;2024-01-30T00:59:58;4.47;;;4.07;;
11386;SDS011;5748;53.102;8.456;2024-01-30T01:02:25;4.30;;;3.90;;
11386;SDS011;5748;53.102;8.456;2024-01-30T01:04:52;4.10;;;3.77;;
11386;SDS011;5748;53.102;8.456;2024-01-30T01:07:18;4.57;;;4.17;;
11386;SDS011;5748;53.102;8.456;2024-01-30T01:09:45;4.60;;;4.20;;
11386;SDS011;5748;53.102;8.456;2024-01-30T01:12:12;4.03;;;3.73;;
11386;SDS011;5748;53.102;8.456;2024-01-30T01:14:41;4.17;;;3.77;;
11386;SDS011;5748;53.102;8.456;2024-01-30T01:17:08;4.47;;;4.07;;
11386;SDS011;5748;53.102;8.456;2024-01-30T01:19:35;4.33;;;4.00;;
11386;SDS011;5748;53.102;8.456;2024-01-30T01:22:02;4.43;;;4.03;;
11386;SDS011;5748;53.102;8.456;2024-01-30T01:24:30;4.50;;;4.10;;
11386;SDS011;5748;53.102;8.456;2024-01-30T01:26:57;4.60;;;4.20;;
11386;SDS011;5748;53.102;8.456;2024-01-30T01:29:25;4.10;;;3.70;;
11386;SDS011;5748;53.102;8.456;2024-01-30T01:31:55;4.60;;;4.20;;
11386;SDS011;5748;53.102;8.456;2024-01-30T01:34:22;4.23;;;3.83;;
11386;SDS011;5748;53.102;8.456;2024-01-30T01:36:49;4.43;;;4.03;;
11386;SDS011;5748;53.102;8.456;2024-01-30T01:39:16;4.63;;;4.00;;
11386;SDS011;5748;53.102;8.456;2024-01-30T01:41:44;3.97;;;3.67;;
11386;SDS011;5748;53.102;8.456;2024-01-30T01:44:10;4.23;;;3.83;;
11386;SDS011;5748;53.102;8.456;2024-01-30T01:46:38;4.40;;;4.00;;
11386;SDS011;5748;53.102;8.456;2024-01-30T01:49:06;4.37;;;3.97;;
11386;SDS011;5748;53.102;8.456;2024-01-30T01:51:34;3.97;;;3.67;;
11386;SDS011;5748;53.102;8.456;2024-01-30T01:54:03;4.37;;;3.87;;
11386;SDS011;5748;53.102;8.456;2024-01-30T01:56:31;4.50;;;4.10;;
11386;SDS011;5748;53.102;8.456;2024-01-30T01:59:00;4.60;;;4.20;;
11386;SDS011;5748;53.102;8.456;2024-01-30T02:01:32;4.20;;;3.83;;
11386;SDS011;5748;53.102;8.456;2024-01-30T02:04:00;4.20;;;3.80;;
11386;SDS011;5748;53.102;8.456;2024-01-30T02:06:28;4.30;;;3.90;;
11386;SDS011;5748;53.102;8.456;2024-01-30T02:08:55;4.23;;;3.83;;
11386;SDS011;5748;53.102;8.456;2024-01-30T02:11:22;4.37;;;3.83;;
11386;SDS011;5748;53.102;8.456;2024-01-30T02:13:50;4.13;;;3.83;;
11386;SDS011;5748;53.102;8.456;2024-01-30T02:16:17;4.77;;;4.37;;
11386;SDS011;5748;53.102;8.456;2024-01-30T02:18:44;4.77;;;4.37;;
11386;SDS011;5748;53.102;8.456;2024-01-30T02:21:14;4.60;;;4.20;;
11386;SDS011;5748;53.102;8.456;2024-01-30T02:23:42;4.90;;;4.40;;
11386;SDS011;5748;53.102;8.456;2024-01-30T02:26:10;4.67;;;4.27;;
11386;SDS011;5748;53.102;8.456;2024-01-30T02:28:38;4.93;;;4.53;;
11386;SDS011;5748;53.102;8.456;2024-01-30T02:31:05;4.67;;;4.27;;
11386;SDS011;5748;53.102;8.456;2024-01-30T02:33:32;4.73;;;4.33;;
11386;SDS011;5748;53.102;8.456;2024-01-30T02:35:59;4.60;;;4.20;;
11386;SDS011;5748;53.102;8.456;2024-01-30T02:38:27;4.30;;;3.83;;
11386;SDS011;5748;53.102;8.456;2024-01-30T02:40:54;4.77;;;4.00;;
11386;SDS011;5748;53.102;8.456;2024-01-30T02:43:22;4.40;;;4.00;;
11386;SDS011;5748;53.102;8.456;2024-01-30T02:45:49;4.03;;;3.60;;
11386;SDS011;5748;53.102;8.456;2024-01-30T02:48:16;4.67;;;3.97;;
11386;SDS011;5748;53.102;8.456;2024-01-30T02:50:43;4.87;;;4.47;;
11386;SDS011;5748;53.102;8.456;2024-01-30T02:53:11;4.80;;;4.40;;
11386;SDS011;5748;53.102;8.456;2024-01-30T02:55:39;4.90;;;4.40;;
11386;SDS011;5748;53.102;8.456;2024-01-30T02:58:06;4.83;;;4.33;;
11386;SDS011;5748;53.102;8.456;2024-01-30T03:00:32;4.33;;;3.97;;
11386;SDS011;5748;53.102;8.456;2024-01-30T03:02:59;4.70;;;4.30;;
11386;SDS011;5748;53.102;8.456;2024-01-30T03:05:27;4.43;;;4.03;;
11386;SDS011;5748;53.102;8.456;2024-01-30T03:07:53;4.67;;;4.27;;
11386;SDS011;5748;53.102;8.456;2024-01-30T03:10:21;4.60;;;4.20;;
11386;SDS011;5748;53.102;8.456;2024-01-30T03:12:49;4.63;;;4.20;;
11386;SDS011;5748;53.102;8.456;2024-01-30T03:15:16;4.53;;;4.13;;
11386;SDS011;5748;53.102;8.456;2024-01-30T03:17:43;4.50;;;4.10;;
11386;SDS011;5748;53.102;8.456;2024-01-30T03:20:10;4.60;;;4.20;;
11386;SDS011;5748;53.102;8.456;2024-01-30T03:22:37;4.80;;;4.30;;
11386;SDS011;5748;53.102;8.456;2024-01-30T03:25:05;4.07;;;3.73;;
11386;SDS011;5748;53.102;8.456;2024-01-30T03:27:33;4.57;;;4.17;;
11386;SDS011;5748;53.102;8.456;2024-01-30T03:30:01;4.33;;;3.93;;
11386;SDS011;5748;53.102;8.456;2024-01-30T03:32:28;4.33;;;3.93;;
11386;SDS011;5748;53.102;8.456;2024-01-30T03:34:55;4.47;;;4.07;;
11386;SDS011;5748;53.102;8.456;2024-01-30T03:37:23;4.57;;;4.17;;
11386;SDS011;5748;53.102;8.456;2024-01-30T03:39:50;4.50;;;4.10;;
11386;SDS011;5748;53.102;8.456;2024-01-30T03:42:17;4.43;;;4.03;;
11386;SDS011;5748;53.102;8.456;2024-01-30T03:44:44;4.63;;;4.23;;
11386;SDS011;5748;53.102;8.456;2024-01-30T03:47:12;4.83;;;4.43;;
11386;SDS011;5748;53.102;8.456;2024-01-30T03:49:39;4.20;;;3.80;;
11386;SDS011;5748;53.102;8.456;2024-01-30T03:52:07;4.70;;;4.20;;
11386;SDS011;5748;53.102;8.456;2024-01-30T03:54:34;4.70;;;4.10;;
11386;SDS011;5748;53.102;8.456;2024-01-30T03:57:01;4.80;;;4.33;;
11386;SDS011;5748;53.102;8.456;2024-01-30T03:59:28;3.97;;;3.67;;
11386;SDS011;5748;53.102;8.456;2024-01-30T04:01:55;5.13;;;4.67;;
11386;SDS011;5748;53.102;8.456;2024-01-30T04:04:24;4.27;;;3.87;;
11386;SDS011;5748;53.102;8.456;2024-01-30T04:06:51;4.17;;;3.77;;
11386;SDS011;5748;53.102;8.456;2024-01-30T04:09:17;4.40;;;4.00;;
11386;SDS011;5748;53.102;8.456;2024-01-30T04:11:45;4.03;;;3.63;;
11386;SDS011;5748;53.102;8.456;2024-01-30T04:14:12;4.33;;;3.93;;
11386;SDS011;5748;53.102;8.456;2024-01-30T04:16:39;4.13;;;3.77;;
11386;SDS011;5748;53.102;8.456;2024-01-30T04:19:06;4.77;;;4.27;;
11386;SDS011;5748;53.102;8.456;2024-01-30T04:21:34;4.70;;;4.20;;
11386;SDS011;5748;53.102;8.456;2024-01-30T04:24:01;4.53;;;4.13;;
11386;SDS011;5748;53.102;8.456;2024-01-30T04:26:28;4.30;;;3.90;;
11386;SDS011;5748;53.102;8.456;2024-01-30T04:28:55;4.27;;;3.87;;
11386;SDS011;5748;53.102;8.456;2024-01-30T04:31:22;4.10;;;3.80;;
11386;SDS011;5748;53.102;8.456;2024-01-30T04:33:49;4.37;;;3.97;;
11386;SDS011;5748;53.102;8.456;2024-01-30T04:36:16;4.47;;;4.07;;
11386;SDS011;5748;53.102;8.456;2024-01-30T04:38:44;4.50;;;4.10;;
11386;SDS011;5748;53.102;8.456;2024-01-30T04:41:11;4.40;;;4.00;;
11386;SDS011;5748;53.102;8.456;2024-01-30T04:43:38;4.40;;;4.00;;
11386;SDS011;5748;53.102;8.456;2024-01-30T04:46:05;4.00;;;3.60;;
11386;SDS011;5748;53.102;8.456;2024-01-30T04:48:32;4.10;;;3.80;;
11386;SDS011;5748;53.102;8.456;2024-01-30T04:50:59;4.40;;;4.00;;
11386;SDS011;5748;53.102;8.456;2024-01-30T04:53:29;4.23;;;3.77;;
11386;SDS011;5748;53.102;8.456;2024-01-30T04:55:58;4.20;;;3.80;;
11386;SDS011;5748;53.102;8.456;2024-01-30T04:58:25;3.90;;;3.60;;
11386;SDS011;5748;53.102;8.456;2024-01-30T05:00:52;4.10;;;3.80;;
11386;SDS011;5748;53.102;8.456;2024-01-30T05:03:19;4.20;;;3.80;;
11386;SDS011;5748;53.102;8.456;2024-01-30T05:05:47;4.30;;;3.90;;
11386;SDS011;5748;53.102;8.456;2024-01-30T05:08:14;3.77;;;3.47;;
11386;SDS011;5748;53.102;8.456;2024-01-30T05:10:41;4.30;;;3.70;;
11386;SDS011;5748;53.102;8.456;2024-01-30T05:13:10;4.60;;;4.20;;
11386;SDS011;5748;53.102;8.456;2024-01-30T05:15:38;4.27;;;3.90;;
11386;SDS011;5748;53.102;8.456;2024-01-30T05:18:05;4.60;;;4.20;;
11386;SDS011;5748;53.102;8.456;2024-01-30T05:20:32;4.40;;;4.00;;
11386;SDS011;5748;53.102;8.456;2024-01-30T05:22:59;4.30;;;3.90;;
11386;SDS011;5748;53.102;8.456;2024-01-30T05:25:26;4.30;;;3.90;;
11386;SDS011;5748;53.102;8.456;2024-01-30T05:27:53;4.20;;;3.80;;
11386;SDS011;5748;53.102;8.456;2024-01-30T05:30:22;4.20;;;3.70;;
11386;SDS011;5748;53.102;8.456;2024-01-30T05:32:49;4.47;;;4.07;;
11386;SDS011;5748;53.102;8.456;2024-01-30T05:35:17;4.07;;;3.67;;
11386;SDS011;5748;53.102;8.456;2024-01-30T05:37:46;4.37;;;3.97;;
11386;SDS011;5748;53.102;8.456;2024-01-30T05:40:14;3.93;;;3.63;;
11386;SDS011;5748;53.102;8.456;2024-01-30T05:42:41;4.30;;;3.90;;
11386;SDS011;5748;53.102;8.456;2024-01-30T05:45:08;3.80;;;3.50;;
11386;SDS011;5748;53.102;8.456;2024-01-30T05:47:37;4.43;;;4.03;;
11386;SDS011;5748;53.102;8.456;2024-01-30T05:50:04;4.30;;;3.90;;
11386;SDS011;5748;53.102;8.456;2024-01-30T05:52:33;4.43;;;4.03;;
11386;SDS011;5748;53.102;8.456;2024-01-30T05:55:00;4.23;;;3.83;;
11386;SDS011;5748;53.102;8.456;2024-01-30T05:57:27;4.30;;;3.90;;
11386;SDS011;5748;53.102;8.456;2024-01-30T05:59:54;4.10;;;3.80;;
11386;SDS011;5748;53.102;8.456;2024-01-30T06:02:21;4.10;;;3.70;;
11386;SDS011;5748;53.102;8.456;2024-01-30T06:04:49;4.17;;;3.77;;
11386;SDS011;5748;53.102;8.456;2024-01-30T06:07:16;4.03;;;3.70;;
11386;SDS011;5748;53.102;8.456;2024-01-30T06:09:43;4.00;;;3.70;;
11386;SDS011;5748;53.102;8.456;2024-01-30T06:12:11;4.83;;;3.77;;
11386;SDS011;5748;53.102;8.456;2024-01-30T06:14:38;4.30;;;3.80;;
11386;SDS011;5748;53.102;8.456;2024-01-30T06:17:07;4.20;;;3.87;;
11386;SDS011;5748;53.102;8.456;2024-01-30T06:19:34;3.90;;;3.60;;
11386;SDS011;5748;53.102;8.456;2024-01-30T06:22:03;4.17;;;3.77;;
11386;SDS011;5748;53.102;8.456;2024-01-30T06:24:30;4.53;;;3.80;;
11386;SDS011;5748;53.102;8.456;2024-01-30T06:26:58;4.30;;;3.90;;
11386;SDS011;5748;53.102;8.456;2024-01-30T06:29:25;4.30;;;3.90;;
11386;SDS011;5748;53.102;8.456;2024-01-30T06:31:53;4.10;;;3.80;;
11386;SDS011;5748;53.102;8.456;2024-01-30T06:34:19;4.30;;;3.90;;
11386;SDS011;5748;53.102;8.456;2024-01-30T06:36:47;3.93;;;3.57;;
11386;SDS011;5748;53.102;8.456;2024-01-30T06:39:16;3.90;;;3.50;;
11386;SDS011;5748;53.102;8.456;2024-01-30T06:41:43;4.03;;;3.67;;
11386;SDS011;5748;53.102;8.456;2024-01-30T06:44:11;4.00;;;3.67;;
11386;SDS011;5748;53.102;8.456;2024-01-30T06:46:39;4.20;;;3.80;;
11386;SDS011;5748;53.102;8.456;2024-01-30T06:49:06;4.30;;;3.90;;
11386;SDS011;5748;53.102;8.456;2024-01-30T06:51:33;4.20;;;3.80;;
11386;SDS011;5748;53.102;8.456;2024-01-30T06:54:00;4.20;;;3.80;;
11386;SDS011;5748;53.102;8.456;2024-01-30T06:56:29;3.90;;;3.50;;
11386;SDS011;5748;53.102;8.456;2024-01-30T06:58:56;4.00;;;3.70;;
11386;SDS011;5748;53.102;8.456;2024-01-30T07:01:27;3.97;;;3.67;;
11386;SDS011;5748;53.102;8.456;2024-01-30T07:03:55;3.77;;;3.47;;
11386;SDS011;5748;53.102;8.456;2024-01-30T07:06:22;4.30;;;3.90;;
11386;SDS011;5748;53.102;8.456;2024-01-30T07:08:49;3.87;;;3.33;;
11386;SDS011;5748;53.102;8.456;2024-01-30T07:11:18;3.87;;;3.57;;
11386;SDS011;5748;53.102;8.456;2024-01-30T07:13:46;3.93;;;3.57;;
11386;SDS011;5748;53.102;8.456;2024-01-30T07:16:13;3.87;;;3.57;;
11386;SDS011;5748;53.102;8.456;2024-01-30T07:18:40;3.70;;;3.40;;
11386;SDS011;5748;53.102;8.456;2024-01-30T07:21:07;3.70;;;3.40;;
11386;SDS011;5748;53.102;8.456;2024-01-30T07:23:34;3.90;;;3.60;;
11386;SDS011;5748;53.102;8.456;2024-01-30T07:26:04;4.30;;;3.90;;
11386;SDS011;5748;53.102;8.456;2024-01-30T07:28:31;4.00;;;3.70;;
11386;SDS011;5748;53.102;8.456;2024-01-30T07:31:00;4.40;;;4.00;;
11386;SDS011;5748;53.102;8.456;2024-01-30T07:33:28;4.20;;;3.90;;
11386;SDS011;5748;53.102;8.456;2024-01-30T07:35:55;3.93;;;3.63;;
11386;SDS011;5748;53.102;8.456;2024-01-30T07:38:22;4.20;;;3.80;;
11386;SDS011;5748;53.102;8.456;2024-01-30T07:40:49;4.20;;;3.80;;
11386;SDS011;5748;53.102;8.456;2024-01-30T07:43:16;4.43;;;4.03;;
11386;SDS011;5748;53.102;8.456;2024-01-30T07:45:45;4.13;;;3.83;;
11386;SDS011;5748;53.102;8.456;2024-01-30T07:48:13;4.47;;;4.07;;
11386;SDS011;5748;53.102;8.456;2024-01-30T07:50:40;4.20;;;3.80;;
11386;SDS011;5748;53.102;8.456;2024-01-30T07:53:07;4.27;;;3.77;;
11386;SDS011;5748;53.102;8.456;2024-01-30T07:55:34;4.23;;;3.83;;
11386;SDS011;5748;53.102;8.456;2024-01-30T07:58:01;4.83;;;4.40;;
11386;SDS011;5748;53.102;8.456;2024-01-30T08:00:29;4.93;;;4.30;;
11386;SDS011;5748;53.102;8.456;2024-01-30T08:02:57;4.53;;;4.13;;
11386;SDS011;5748;53.102;8.456;2024-01-30T08:05:25;4.40;;;4.00;;
11386;SDS011;5748;53.102;8.456;2024-01-30T08:07:52;4.50;;;4.10;;
11386;SDS011;5748;53.102;8.456;2024-01-30T08:10:19;4.40;;;4.00;;
11386;SDS011;5748;53.102;8.456;2024-01-30T08:12:47;4.50;;;4.10;;
11386;SDS011;5748;53.102;8.456;2024-01-30T08:15:14;4.70;;;4.30;;
11386;SDS011;5748;53.102;8.456;2024-01-30T08:17:41;4.27;;;3.87;;
11386;SDS011;5748;53.102;8.456;2024-01-30T08:20:10;4.63;;;4.23;;
11386;SDS011;5748;53.102;8.456;2024-01-30T08:22:40;4.63;;;3.90;;
11386;SDS011;5748;53.102;8.456;2024-01-30T08:25:07;4.13;;;3.73;;
11386;SDS011;5748;53.102;8.456;2024-01-30T08:27:35;4.80;;;4.30;;
11386;SDS011;5748;53.102;8.456;2024-01-30T08:30:03;4.50;;;4.10;;
11386;SDS011;5748;53.102;8.456;2024-01-30T08:32:32;5.30;;;4.70;;
11386;SDS011;5748;53.102;8.456;2024-01-30T08:34:59;5.00;;;4.50;;
11386;SDS011;5748;53.102;8.456;2024-01-30T08:37:28;4.60;;;4.20;;
11386;SDS011;5748;53.102;8.456;2024-01-30T08:39:57;4.23;;;3.83;;
11386;SDS011;5748;53.102;8.456;2024-01-30T08:42:24;4.40;;;4.00;;
11386;SDS011;5748;53.102;8.456;2024-01-30T08:44:51;4.87;;;4.10;;
11386;SDS011;5748;53.102;8.456;2024-01-30T08:47:19;4.60;;;4.20;;
11386;SDS011;5748;53.102;8.456;2024-01-30T08:49:46;4.10;;;3.70;;
11386;SDS011;5748;53.102;8.456;2024-01-30T08:52:13;4.20;;;3.80;;
11386;SDS011;5748;53.102;8.456;2024-01-30T08:54:40;4.30;;;3.90;;
11386;SDS011;5748;53.102;8.456;2024-01-30T08:57:08;4.43;;;4.03;;
11386;SDS011;5748;53.102;8.456;2024-01-30T08:59:35;4.03;;;3.63;;
11386;SDS011;5748;53.102;8.456;2024-01-30T09:02:02;4.80;;;4.40;;
11386;SDS011;5748;53.102;8.456;2024-01-30T09:04:30;4.00;;;3.70;;
11386;SDS011;5748;53.102;8.456;2024-01-30T09:06:57;4.27;;;3.87;;
11386;SDS011;5748;53.102;8.456;2024-01-30T09:09:24;4.33;;;3.93;;
11386;SDS011;5748;53.102;8.456;2024-01-30T09:11:51;4.13;;;3.73;;
11386;SDS011;5748;53.102;8.456;2024-01-30T09:14:19;4.87;;;4.47;;
11386;SDS011;5748;53.102;8.456;2024-01-30T09:16:46;4.93;;;3.70;;
11386;SDS011;5748;53.102;8.456;2024-01-30T09:19:14;4.43;;;4.03;;
11386;SDS011;5748;53.102;8.456;2024-01-30T09:21:41;4.33;;;3.93;;
11386;SDS011;5748;53.102;8.456;2024-01-30T09:24:08;4.37;;;3.97;;
11386;SDS011;5748;53.102;8.456;2024-01-30T09:26:35;4.27;;;3.87;;
11386;SDS011;5748;53.102;8.456;2024-01-30T09:29:02;4.40;;;4.00;;
11386;SDS011;5748;53.102;8.456;2024-01-30T09:31:30;4.20;;;3.80;;
11386;SDS011;5748;53.102;8.456;2024-01-30T09:33:57;4.13;;;3.80;;
11386;SDS011;5748;53.102;8.456;2024-01-30T09:36:24;4.30;;;3.90;;
11386;SDS011;5748;53.102;8.456;2024-01-30T09:38:52;4.03;;;3.63;;
11386;SDS011;5748;53.102;8.456;2024-01-30T09:41:19;3.90;;;3.60;;
11386;SDS011;5748;53.102;8.456;2024-01-30T09:43:50;4.07;;;3.70;;
11386;SDS011;5748;53.102;8.456;2024-01-30T09:46:17;4.07;;;3.70;;
11386;SDS011;5748;53.102;8.456;2024-01-30T09:48:48;3.87;;;3.57;;
11386;SDS011;5748;53.102;8.456;2024-01-30T09:51:15;3.87;;;3.53;;
11386;SDS011;5748;53.102;8.456;2024-01-30T09:53:44;4.27;;;3.87;;
11386;SDS011;5748;53.102;8.456;2024-01-30T09:56:12;3.73;;;3.43;;
11386;SDS011;5748;53.102;8.456;2024-01-30T09:58:39;4.63;;;3.67;;
11386;SDS011;5748;53.102;8.456;2024-01-30T10:01:07;3.90;;;3.50;;
11386;SDS011;5748;53.102;8.456;2024-01-30T10:03:34;3.90;;;3.60;;
11386;SDS011;5748;53.102;8.456;2024-01-30T10:06:02;4.00;;;3.60;;
11386;SDS011;5748;53.102;8.456;2024-01-30T10:08:29;4.40;;;4.00;;
11386;SDS011;5748;53.102;8.456;2024-01-30T10:10:56;3.70;;;3.40;;
11386;SDS011;5748;53.102;8.456;2024-01-30T10:13:23;3.70;;;3.40;;
11386;SDS011;5748;53.102;8.456;2024-01-30T10:15:52;4.10;;;3.70;;
11386;SDS011;5748;53.102;8.456;2024-01-30T10:18:20;4.37;;;3.97;;
11386;SDS011;5748;53.102;8.456;2024-01-30T10:20:48;3.70;;;3.30;;
11386;SDS011;5748;53.102;8.456;2024-01-30T10:23:17;3.60;;;3.20;;
11386;SDS011;5748;53.102;8.456;2024-01-30T10:25:44;3.60;;;3.30;;
11386;SDS011;5748;53.102;8.456;2024-01-30T10:28:11;3.97;;;3.57;;
11386;SDS011;5748;53.102;8.456;2024-01-30T10:30:39;4.23;;;3.83;;
11386;SDS011;5748;53.102;8.456;2024-01-30T10:33:06;4.20;;;3.83;;
11386;SDS011;5748;53.102;8.456;2024-01-30T10:35:33;4.20;;;3.80;;
11386;SDS011;5748;53.102;8.456;2024-01-30T10:38:00;3.80;;;3.50;;
11386;SDS011;5748;53.102;8.456;2024-01-30T10:40:29;4.60;;;4.20;;
11386;SDS011;5748;53.102;8.456;2024-01-30T10:42:58;3.90;;;3.60;;
11386;SDS011;5748;53.102;8.456;2024-01-30T10:45:28;3.53;;;3.23;;
11386;SDS011;5748;53.102;8.456;2024-01-30T10:47:56;4.33;;;3.60;;
11386;SDS011;5748;53.102;8.456;2024-01-30T10:50:26;4.10;;;3.70;;
11386;SDS011;5748;53.102;8.456;2024-01-30T10:52:54;3.50;;;3.20;;
11386;SDS011;5748;53.102;8.456;2024-01-30T10:55:21;3.70;;;3.40;;
11386;SDS011;5748;53.102;8.456;2024-01-30T10:57:50;3.30;;;3.00;;
11386;SDS011;5748;53.102;8.456;2024-01-30T11:00:19;4.03;;;3.63;;
11386;SDS011;5748;53.102;8.456;2024-01-30T11:02:48;3.80;;;3.50;;
11386;SDS011;5748;53.102;8.456;2024-01-30T11:05:23;3.27;;;2.97;;
11386;SDS011;5748;53.102;8.456;2024-01-30T11:07:52;3.40;;;3.10;;
11386;SDS011;5748;53.102;8.456;2024-01-30T11:10:19;4.23;;;3.47;;
11386;SDS011;5748;53.102;8.456;2024-01-30T11:12:46;3.57;;;3.20;;
11386;SDS011;5748;53.102;8.456;2024-01-30T11:15:16;3.77;;;3.10;;
11386;SDS011;5748;53.102;8.456;2024-01-30T11:17:44;3.50;;;3.20;;
11386;SDS011;5748;53.102;8.456;2024-01-30T11:20:18;3.40;;;2.97;;
11386;SDS011;5748;53.102;8.456;2024-01-30T11:22:48;3.67;;;3.37;;
11386;SDS011;5748;53.102;8.456;2024-01-30T11:25:17;3.40;;;3.10;;
11386;SDS011;5748;53.102;8.456;2024-01-30T11:27:46;3.30;;;3.00;;
11386;SDS011;5748;53.102;8.456;2024-01-30T11:30:23;2.80;;;2.60;;
11386;SDS011;5748;53.102;8.456;2024-01-30T11:32:58;3.43;;;3.13;;
11386;SDS011;5748;53.102;8.456;2024-01-30T11:35:27;3.90;;;3.50;;
11386;SDS011;5748;53.102;8.456;2024-01-30T11:37:58;3.30;;;3.00;;
11386;SDS011;5748;53.102;8.456;2024-01-30T11:40:27;3.43;;;3.13;;
11386;SDS011;5748;53.102;8.456;2024-01-30T11:42:55;3.90;;;3.50;;
11386;SDS011;5748;53.102;8.456;2024-01-30T11:45:23;3.70;;;3.40;;
11386;SDS011;5748;53.102;8.456;2024-01-30T11:47:50;3.50;;;3.20;;
11386;SDS011;5748;53.102;8.456;2024-01-30T11:50:17;4.00;;;3.30;;
11386;SDS011;5748;53.102;8.456;2024-01-30T11:52:45;3.40;;;3.10;;
11386;SDS011;5748;53.102;8.456;2024-01-30T11:55:12;3.40;;;3.10;;
11386;SDS011;5748;53.102;8.456;2024-01-30T11:57:40;3.70;;;3.20;;
11386;SDS011;5748;53.102;8.456;2024-01-30T12:00:13;3.43;;;2.90;;
11386;SDS011;5748;53.102;8.456;2024-01-30T12:02:43;3.33;;;3.03;;
11386;SDS011;5748;53.102;8.456;2024-01-30T12:05:10;3.63;;;3.13;;
11386;SDS011;5748;53.102;8.456;2024-01-30T12:07:37;3.00;;;2.70;;
11386;SDS011;5748;53.102;8.456;2024-01-30T12:10:05;3.07;;;2.77;;
11386;SDS011;5748;53.102;8.456;2024-01-30T12:12:33;3.43;;;3.13;;
11386;SDS011;5748;53.102;8.456;2024-01-30T12:15:00;3.60;;;3.30;;
11386;SDS011;5748;53.102;8.456;2024-01-30T12:17:28;3.50;;;3.20;;
11386;SDS011;5748;53.102;8.456;2024-01-30T12:20:05;3.20;;;2.90;;
11386;SDS011;5748;53.102;8.456;2024-01-30T12:22:35;3.70;;;3.40;;
11386;SDS011;5748;53.102;8.456;2024-01-30T12:25:04;3.73;;;3.43;;
11386;SDS011;5748;53.102;8.456;2024-01-30T12:27:33;3.60;;;3.30;;
11386;SDS011;5748;53.102;8.456;2024-01-30T12:30:00;3.43;;;3.13;;
11386;SDS011;5748;53.102;8.456;2024-01-30T12:32:31;3.50;;;3.20;;
11386;SDS011;5748;53.102;8.456;2024-01-30T12:35:01;3.10;;;2.90;;
11386;SDS011;5748;53.102;8.456;2024-01-30T12:37:30;3.40;;;3.10;;
11386;SDS011;5748;53.102;8.456;2024-01-30T12:39:57;3.30;;;3.00;;
11386;SDS011;5748;53.102;8.456;2024-01-30T12:42:24;3.60;;;3.30;;
11386;SDS011;5748;53.102;8.456;2024-01-30T12:44:54;3.40;;;3.10;;
11386;SDS011;5748;53.102;8.456;2024-01-30T12:47:23;3.90;;;3.50;;
11386;SDS011;5748;53.102;8.456;2024-01-30T12:49:50;3.53;;;3.13;;
11386;SDS011;5748;53.102;8.456;2024-01-30T12:52:18;3.30;;;3.00;;
11386;SDS011;5748;53.102;8.456;2024-01-30T12:54:48;3.40;;;3.10;;
11386;SDS011;5748;53.102;8.456;2024-01-30T12:57:16;3.20;;;2.80;;
11386;SDS011;5748;53.102;8.456;2024-01-30T12:59:43;3.33;;;3.03;;
11386;SDS011;5748;53.102;8.456;2024-01-30T13:02:11;3.57;;;3.27;;
11386;SDS011;5748;53.102;8.456;2024-01-30T13:04:39;3.83;;;2.60;;
11386;SDS011;5748;53.102;8.456;2024-01-30T13:07:07;3.20;;;2.90;;
11386;SDS011;5748;53.102;8.456;2024-01-30T13:09:34;3.10;;;2.73;;
11386;SDS011;5748;53.102;8.456;2024-01-30T13:12:03;2.97;;;2.67;;
11386;SDS011;5748;53.102;8.456;2024-01-30T13:14:31;3.30;;;3.00;;
11386;SDS011;5748;53.102;8.456;2024-01-30T13:16:57;3.70;;;3.30;;
11386;SDS011;5748;53.102;8.456;2024-01-30T13:19:25;3.80;;;3.50;;
11386;SDS011;5748;53.102;8.456;2024-01-30T13:21:52;4.20;;;3.40;;
11386;SDS011;5748;53.102;8.456;2024-01-30T13:24:19;3.30;;;3.00;;
11386;SDS011;5748;53.102;8.456;2024-01-30T13:26:46;3.70;;;2.97;;
11386;SDS011;5748;53.102;8.456;2024-01-30T13:29:15;3.30;;;3.00;;
11386;SDS011;5748;53.102;8.456;2024-01-30T13:31:42;4.13;;;3.73;;
11386;SDS011;5748;53.102;8.456;2024-01-30T13:34:11;3.73;;;3.40;;
11386;SDS011;5748;53.102;8.456;2024-01-30T13:36:39;3.50;;;3.20;;
11386;SDS011;5748;53.102;8.456;2024-01-30T13:39:07;4.57;;;3.60;;
11386;SDS011;5748;53.102;8.456;2024-01-30T13:41:35;3.37;;;3.07;;
11386;SDS011;5748;53.102;8.456;2024-01-30T13:44:03;3.93;;;3.50;;
11386;SDS011;5748;53.102;8.456;2024-01-30T13:46:32;4.23;;;3.80;;
11386;SDS011;5748;53.102;8.456;2024-01-30T13:48:59;3.80;;;3.40;;
11386;SDS011;5748;53.102;8.456;2024-01-30T13:51:26;3.40;;;3.10;;
11386;SDS011;5748;53.102;8.456;2024-01-30T13:53:53;3.00;;;2.80;;
11386;SDS011;5748;53.102;8.456;2024-01-30T13:56:20;2.87;;;2.67;;
11386;SDS011;5748;53.102;8.456;2024-01-30T13:58:47;3.37;;;3.07;;
11386;SDS011;5748;53.102;8.456;2024-01-30T14:01:15;3.20;;;2.90;;
11386;SDS011;5748;53.102;8.456;2024-01-30T14:03:44;3.40;;;3.10;;
11386;SDS011;5748;53.102;8.456;2024-01-30T14:06:11;3.80;;;3.00;;
11386;SDS011;5748;53.102;8.456;2024-01-30T14:08:38;3.23;;;2.93;;
11386;SDS011;5748;53.102;8.456;2024-01-30T14:11:05;3.57;;;3.27;;
11386;SDS011;5748;53.102;8.456;2024-01-30T14:13:33;3.20;;;2.90;;
11386;SDS011;5748;53.102;8.456;2024-01-30T14:16:00;4.10;;;3.70;;
11386;SDS011;5748;53.102;8.456;2024-01-30T14:18:27;4.10;;;3.10;;
11386;SDS011;5748;53.102;8.456;2024-01-30T14:20:56;3.40;;;3.10;;
11386;SDS011;5748;53.102;8.456;2024-01-30T14:23:23;3.63;;;3.33;;
11386;SDS011;5748;53.102;8.456;2024-01-30T14:25:50;3.50;;;3.20;;
11386;SDS011;5748;53.102;8.456;2024-01-30T14:28:17;4.03;;;3.70;;
11386;SDS011;5748;53.102;8.456;2024-01-30T14:30:44;3.73;;;3.43;;
11386;SDS011;5748;53.102;8.456;2024-01-30T14:33:12;3.97;;;3.10;;
11386;SDS011;5748;53.102;8.456;2024-01-30T14:35:39;3.37;;;3.07;;
11386;SDS011;5748;53.102;8.456;2024-01-30T14:38:07;3.50;;;3.20;;
11386;SDS011;5748;53.102;8.456;2024-01-30T14:40:35;3.20;;;2.90;;
11386;SDS011;5748;53.102;8.456;2024-01-30T14:43:03;3.90;;;2.97;;
11386;SDS011;5748;53.102;8.456;2024-01-30T14:45:30;2.80;;;2.60;;
11386;SDS011;5748;53.102;8.456;2024-01-30T14:47:57;5.27;;;3.30;;
11386;SDS011;5748;53.102;8.456;2024-01-30T14:50:25;3.00;;;2.80;;
11386;SDS011;5748;53.102;8.456;2024-01-30T14:52:53;3.10;;;2.80;;
11386;SDS011;5748;53.102;8.456;2024-01-30T14:55:21;3.13;;;2.83;;
11386;SDS011;5748;53.102;8.456;2024-01-30T14:57:49;3.07;;;2.80;;
11386;SDS011;5748;53.102;8.456;2024-01-30T15:00:16;3.33;;;3.03;;
11386;SDS011;5748;53.102;8.456;2024-01-30T15:02:44;3.40;;;3.10;;